This is the latest recevied weather packets stored in our database for station/object DO6MJ-1. If no packets are shown the sender has not sent any weather packets the latest 10 day(s).
| Time | Temp. | Humidity | Pressure | Rain* | Wind** | Luminosity | Snow |
|---|---|---|---|---|---|---|---|
| 1777789341 | 22.22° C | 54% | 1004.7 hPa | 0 mm | - | - | - |
| 1777788141 | 21.11° C | 60% | 1004.9 hPa | 0 mm | - | - | - |
| 1777786941 | 19.44° C | 64% | 1005.1 hPa | 0 mm | - | - | - |
| 1777785740 | 17.22° C | 71% | 1005.3 hPa | 0 mm | - | - | - |
| 1777784540 | 13.33° C | 77% | 1005.5 hPa | 0 mm | - | - | - |
| 1777783340 | 12.78° C | 77% | 1005.5 hPa | 0 mm | - | - | - |
| 1777782140 | 11.67° C | 77% | 1005.5 hPa | 0 mm | - | - | - |
| 1777780939 | 11.67° C | 76% | 1005.6 hPa | 0 mm | - | - | - |
| 1777779739 | 11.67° C | 75% | 1005.5 hPa | 0 mm | - | - | - |
| 1777778539 | 12.22° C | 73% | 1005.3 hPa | 0 mm | - | - | - |
| 1777777338 | 12.78° C | 72% | 1005.4 hPa | 0 mm | - | - | - |
| 1777776138 | 13.33° C | 71% | 1005.7 hPa | 0 mm | - | - | - |
| 1777774938 | 13.33° C | 70% | 1005.6 hPa | 0 mm | - | - | - |
| 1777773738 | 13.89° C | 69% | 1005.7 hPa | 0 mm | - | - | - |
| 1777772537 | 14.44° C | 69% | 1005.7 hPa | 0 mm | - | - | - |
| 1777771337 | 15° C | 69% | 1006 hPa | 0 mm | - | - | - |
| 1777770137 | 15° C | 69% | 1006.4 hPa | 0 mm | - | - | - |
| 1777768936 | 15° C | 70% | 1006.8 hPa | 0 mm | - | - | - |
| 1777767736 | 15° C | 71% | 1006.9 hPa | 0 mm | - | - | - |
| 1777766536 | 15° C | 70% | 1006.9 hPa | 0 mm | - | - | - |
| 1777765336 | 15° C | 68% | 1006.9 hPa | 0 mm | - | - | - |
| 1777764135 | 15° C | 68% | 1007 hPa | 0 mm | - | - | - |
| 1777762935 | 15.56° C | 67% | 1006.6 hPa | 0 mm | - | - | - |
| 1777761735 | 16.11° C | 66% | 1006.8 hPa | 0 mm | - | - | - |
| 1777760535 | 16.11° C | 64% | 1006.7 hPa | 0 mm | - | - | - |
* Rain latest hour (hover to see other rain measurements)
** Current wind speed in m/s (hover to see current wind gust speed)